Time;durP1;ratioP1;P1;durP2;ratioP2;P2;SDS_P1;SDS_P2;PMS_P1;PMS_P2;Temp;Humidity;BMP_temperature;BMP_pressure;BME280_temperature;BME280_humidity;BME280_pressure;Samples;Min_cycle;Max_cycle;Signal;HPM_P1;HPM_P2
2021/08/06 00:02:23;;;;;;;;;2.00;2.00;;;;;;;;5016764;27;45822;-79
2021/08/06 00:04:48;;;;;;;;;3.67;2.00;;;;;;;;5032483;28;45561;-80
2021/08/06 00:07:14;;;;;;;;;1.00;1.00;;;;;;;;5015138;27;45399;-79
2021/08/06 00:09:39;;;;;;;;;2.50;2.00;;;;;;;;5033042;27;45519;-80
2021/08/06 00:12:05;;;;;;;;;4.00;2.25;;;;;;;;5021497;27;45798;-79
2021/08/06 00:14:31;;;;;;;;;4.00;1.25;;;;;;;;5035074;27;45478;-78
2021/08/06 00:16:56;;;;;;;;;3.25;2.25;;;;;;;;5033231;28;45340;-79
2021/08/06 00:19:21;;;;;;;;;2.00;2.00;;;;;;;;5032105;27;45464;-78
2021/08/06 00:21:46;;;;;;;;;4.50;2.00;;;;;;;;5050752;28;45454;-79
2021/08/06 00:24:12;;;;;;;;;2.67;1.00;;;;;;;;5036387;27;45453;-78
2021/08/06 00:26:37;;;;;;;;;2.50;0.00;;;;;;;;5033178;27;45410;-78
2021/08/06 00:29:02;;;;;;;;;3.00;2.00;;;;;;;;5030082;28;45448;-81
2021/08/06 00:31:28;;;;;;;;;3.00;1.00;;;;;;;;5031554;28;45454;-79
2021/08/06 00:33:53;;;;;;;;;1.00;1.00;;;;;;;;5045797;28;45406;-78
2021/08/06 00:36:18;;;;;;;;;2.33;1.00;;;;;;;;5028871;27;45341;-78
2021/08/06 00:38:43;;;;;;;;;2.00;2.00;;;;;;;;5027915;28;45410;-80
2021/08/06 00:41:08;;;;;;;;;3.33;2.00;;;;;;;;5027253;27;45476;-79
2021/08/06 00:43:34;;;;;;;;;2.33;1.67;;;;;;;;5015259;28;45441;-80
2021/08/06 00:46:01;;;;;;;;;3.00;1.75;;;;;;;;5033077;28;45425;-80
2021/08/06 00:48:26;;;;;;;;;2.00;2.00;;;;;;;;5012949;28;47284;-77
2021/08/06 00:50:52;;;;;;;;;1.75;1.75;;;;;;;;5029322;28;45906;-78
2021/08/06 00:53:17;;;;;;;;;1.75;1.00;;;;;;;;5034485;27;45402;-78
2021/08/06 00:55:43;;;;;;;;;1.75;1.75;;;;;;;;5031029;28;45460;-79
2021/08/06 00:58:08;;;;;;;;;2.00;1.75;;;;;;;;5029312;27;45598;-79
2021/08/06 01:00:33;;;;;;;;;1.50;1.50;;;;;;;;5031032;27;45477;-80
2021/08/06 01:03:01;;;;;;;;;2.75;2.25;;;;;;;;5030054;27;45553;-79
2021/08/06 01:05:30;;;;;;;;;3.00;3.00;;;;;;;;5029718;27;45803;-79
2021/08/06 01:08:06;;;;;;;;;2.50;2.00;;;;;;;;5035492;28;45457;-77
2021/08/06 01:10:44;;;;;;;;;3.75;1.00;;;;;;;;5028261;27;45379;-78
2021/08/06 01:13:11;;;;;;;;;4.00;2.00;;;;;;;;5009823;28;45444;-78
2021/08/06 01:15:37;;;;;;;;;2.50;1.00;;;;;;;;5015390;28;45506;-80
2021/08/06 01:18:05;;;;;;;;;2.00;2.00;;;;;;;;5015892;27;47270;-79
2021/08/06 01:20:42;;;;;;;;;2.00;1.00;;;;;;;;5030344;27;46709;-79
2021/08/06 01:23:14;;;;;;;;;3.50;2.25;;;;;;;;5033242;28;45376;-81
2021/08/06 01:25:48;;;;;;;;;1.00;1.00;;;;;;;;5027760;28;45641;-78
2021/08/06 01:28:14;;;;;;;;;3.00;1.75;;;;;;;;5028511;28;46599;-78
2021/08/06 01:30:40;;;;;;;;;3.50;2.25;;;;;;;;5035657;28;46207;-79
2021/08/06 01:33:05;;;;;;;;;3.50;1.50;;;;;;;;5035181;27;45520;-80
2021/08/06 01:35:30;;;;;;;;;2.00;2.00;;;;;;;;5032742;27;45663;-79
2021/08/06 01:37:55;;;;;;;;;2.33;2.33;;;;;;;;5016427;28;48135;-77
2021/08/06 01:40:21;;;;;;;;;5.00;2.00;;;;;;;;5031783;27;45555;-78
2021/08/06 01:42:50;;;;;;;;;2.75;2.75;;;;;;;;5012657;27;45682;-78
2021/08/06 01:45:19;;;;;;;;;2.00;1.00;;;;;;;;5033628;27;45659;-78
2021/08/06 01:47:46;;;;;;;;;3.00;2.00;;;;;;;;5028292;27;45460;-78
2021/08/06 01:50:14;;;;;;;;;2.00;1.00;;;;;;;;5027159;27;45658;-77
2021/08/06 01:52:50;;;;;;;;;3.50;2.00;;;;;;;;5019738;28;45498;-78
2021/08/06 01:55:16;;;;;;;;;1.50;1.50;;;;;;;;5027694;27;45755;-79
2021/08/06 01:57:43;;;;;;;;;4.00;1.25;;;;;;;;5028476;27;46167;-79
2021/08/06 02:00:08;;;;;;;;;2.50;2.50;;;;;;;;5030349;27;45430;-79
2021/08/06 02:02:36;;;;;;;;;4.00;2.00;;;;;;;;5033241;27;45446;-78
2021/08/06 02:05:02;;;;;;;;;2.50;2.00;;;;;;;;5032137;28;45473;-79
2021/08/06 02:07:27;;;;;;;;;2.00;2.00;;;;;;;;5032718;27;46065;-78
2021/08/06 02:09:53;;;;;;;;;2.00;1.00;;;;;;;;5035253;27;45277;-79
2021/08/06 02:12:19;;;;;;;;;1.75;1.75;;;;;;;;5032982;27;45397;-80
2021/08/06 02:14:44;;;;;;;;;2.00;2.00;;;;;;;;5031582;27;45472;-80
2021/08/06 02:17:09;;;;;;;;;2.75;2.75;;;;;;;;5027621;28;46069;-78
2021/08/06 02:19:35;;;;;;;;;1.00;1.00;;;;;;;;5029125;27;45481;-79
2021/08/06 02:22:01;;;;;;;;;2.25;2.00;;;;;;;;5027838;27;45489;-77
2021/08/06 02:24:28;;;;;;;;;3.50;3.00;;;;;;;;5099257;27;45576;-79
2021/08/06 02:26:55;;;;;;;;;3.00;2.00;;;;;;;;5028637;27;45422;-78
2021/08/06 02:29:22;;;;;;;;;3.25;2.00;;;;;;;;5029663;27;45607;-79
2021/08/06 02:31:47;;;;;;;;;2.00;1.00;;;;;;;;5031532;28;45516;-79
2021/08/06 02:34:14;;;;;;;;;2.50;2.00;;;;;;;;5097060;27;45493;-79
2021/08/06 02:36:39;;;;;;;;;3.00;1.25;;;;;;;;5035183;27;45494;-79
2021/08/06 02:39:15;;;;;;;;;1.00;1.00;;;;;;;;5028230;27;45506;-79
2021/08/06 02:41:41;;;;;;;;;1.75;1.25;;;;;;;;5031109;27;45596;-79
2021/08/06 02:44:09;;;;;;;;;3.00;1.50;;;;;;;;5028450;28;45523;-79
2021/08/06 02:46:35;;;;;;;;;3.00;1.00;;;;;;;;5028683;27;45454;-79
2021/08/06 02:49:00;;;;;;;;;1.25;1.25;;;;;;;;5033616;27;45338;-81
2021/08/06 02:51:25;;;;;;;;;2.67;1.33;;;;;;;;5035266;27;45489;-78
2021/08/06 02:53:50;;;;;;;;;1.00;1.00;;;;;;;;5013962;27;45490;-79
2021/08/06 02:56:15;;;;;;;;;1.00;1.00;;;;;;;;5032645;27;45705;-79
2021/08/06 02:58:41;;;;;;;;;2.33;1.00;;;;;;;;5035884;28;45404;-80
2021/08/06 03:01:06;;;;;;;;;1.00;1.00;;;;;;;;5031697;27;45631;-79
2021/08/06 03:03:31;;;;;;;;;2.33;1.00;;;;;;;;5036810;27;45345;-80
2021/08/06 03:05:56;;;;;;;;;1.00;1.00;;;;;;;;5031991;27;45455;-79
2021/08/06 03:08:21;;;;;;;;;1.00;1.00;;;;;;;;5033183;27;48281;-79
2021/08/06 03:10:47;;;;;;;;;1.67;0.67;;;;;;;;5015398;28;45486;-79
2021/08/06 03:13:12;;;;;;;;;1.67;0.67;;;;;;;;5029912;27;45679;-79
2021/08/06 03:15:37;;;;;;;;;2.33;1.00;;;;;;;;5029068;27;46298;-80
2021/08/06 03:18:02;;;;;;;;;1.67;1.67;;;;;;;;5030788;27;45765;-79
2021/08/06 03:20:29;;;;;;;;;4.00;1.00;;;;;;;;5027887;27;45279;-78
2021/08/06 03:22:54;;;;;;;;;1.00;1.00;;;;;;;;5028543;28;45480;-79
2021/08/06 03:25:20;;;;;;;;;1.00;1.00;;;;;;;;5030663;27;45665;-78
2021/08/06 03:27:45;;;;;;;;;1.00;1.00;;;;;;;;5031260;27;45431;-78
2021/08/06 03:30:12;;;;;;;;;5.33;1.00;;;;;;;;5030220;27;45417;-79
2021/08/06 03:32:37;;;;;;;;;1.00;1.00;;;;;;;;5013641;27;45564;-78
2021/08/06 03:35:03;;;;;;;;;1.00;1.00;;;;;;;;5095575;27;47502;-79
2021/08/06 03:37:28;;;;;;;;;1.00;1.00;;;;;;;;5024705;27;45527;-80
2021/08/06 03:39:53;;;;;;;;;0.00;0.00;;;;;;;;5029640;28;46557;-79
2021/08/06 03:42:18;;;;;;;;;2.00;1.00;;;;;;;;5030864;27;45527;-80
2021/08/06 03:44:43;;;;;;;;;1.00;1.00;;;;;;;;5044623;28;48308;-78
2021/08/06 03:47:09;;;;;;;;;2.00;0.00;;;;;;;;5009491;28;45515;-79
2021/08/06 03:49:34;;;;;;;;;2.25;1.00;;;;;;;;5030122;27;46578;-78
2021/08/06 03:51:59;;;;;;;;;0.50;0.50;;;;;;;;5029613;27;45403;-79
2021/08/06 03:54:25;;;;;;;;;0.00;0.00;;;;;;;;5032774;27;46651;-78
2021/08/06 03:56:50;;;;;;;;;2.00;0.33;;;;;;;;5030923;27;45411;-78
2021/08/06 03:59:15;;;;;;;;;0.00;0.00;;;;;;;;5032157;27;45572;-80
2021/08/06 04:01:40;;;;;;;;;1.00;0.00;;;;;;;;5014800;28;45450;-78
2021/08/06 04:04:07;;;;;;;;;1.00;1.00;;;;;;;;5013858;27;46050;-80
2021/08/06 04:06:33;;;;;;;;;1.00;1.00;;;;;;;;5034800;27;45833;-79
2021/08/06 04:08:58;;;;;;;;;4.25;1.25;;;;;;;;5026365;27;45865;-79
2021/08/06 04:11:23;;;;;;;;;2.67;1.00;;;;;;;;5029722;27;46627;-78
2021/08/06 04:13:48;;;;;;;;;3.67;1.00;;;;;;;;5030764;27;46442;-79
2021/08/06 04:16:14;;;;;;;;;4.33;1.33;;;;;;;;5029108;27;45498;-81
2021/08/06 04:18:39;;;;;;;;;3.00;1.00;;;;;;;;5015470;27;45374;-82
2021/08/06 04:21:04;;;;;;;;;2.00;1.00;;;;;;;;5036384;27;45437;-77
2021/08/06 04:23:29;;;;;;;;;2.00;1.00;;;;;;;;5016163;28;47215;-79
2021/08/06 04:25:55;;;;;;;;;1.50;1.00;;;;;;;;5034665;28;45502;-79
2021/08/06 04:28:20;;;;;;;;;1.00;1.00;;;;;;;;5031523;27;46664;-78
2021/08/06 04:30:45;;;;;;;;;2.00;1.00;;;;;;;;5035483;27;45403;-79
2021/08/06 04:33:10;;;;;;;;;2.00;1.00;;;;;;;;5051746;28;47040;-78
2021/08/06 04:35:36;;;;;;;;;3.00;1.50;;;;;;;;5016648;27;45460;-81
2021/08/06 04:38:01;;;;;;;;;1.67;0.67;;;;;;;;5017852;28;45547;-78
2021/08/06 04:40:26;;;;;;;;;2.50;2.00;;;;;;;;5020460;27;45529;-78
2021/08/06 04:42:52;;;;;;;;;4.50;1.00;;;;;;;;5036356;27;45498;-77
2021/08/06 04:45:17;;;;;;;;;1.00;0.50;;;;;;;;5032231;27;45487;-78
2021/08/06 04:47:43;;;;;;;;;0.75;0.75;;;;;;;;5031885;27;45360;-78
2021/08/06 04:50:09;;;;;;;;;0.75;0.25;;;;;;;;5037796;27;45540;-76
2021/08/06 04:52:34;;;;;;;;;2.00;0.25;;;;;;;;5020673;27;45965;-77
2021/08/06 04:54:59;;;;;;;;;2.00;0.33;;;;;;;;5023284;27;45634;-76
2021/08/06 04:57:24;;;;;;;;;0.00;0.00;;;;;;;;5035966;27;45442;-76
2021/08/06 04:59:50;;;;;;;;;0.67;0.67;;;;;;;;5033607;27;45664;-76
2021/08/06 05:02:15;;;;;;;;;0.00;0.00;;;;;;;;5030739;27;45472;-76
2021/08/06 05:04:40;;;;;;;;;2.00;0.67;;;;;;;;5014861;28;45556;-77
2021/08/06 05:07:05;;;;;;;;;1.33;1.00;;;;;;;;5030114;27;45469;-76
2021/08/06 05:09:30;;;;;;;;;6.50;0.25;;;;;;;;5028756;27;45309;-76
2021/08/06 05:11:56;;;;;;;;;0.00;0.00;;;;;;;;5049973;28;47009;-76
2021/08/06 05:14:21;;;;;;;;;0.00;0.00;;;;;;;;5020874;27;45524;-75
2021/08/06 05:16:46;;;;;;;;;0.00;0.00;;;;;;;;5010808;28;45514;-76
2021/08/06 05:19:11;;;;;;;;;1.00;0.00;;;;;;;;5010606;28;45566;-76
2021/08/06 05:21:36;;;;;;;;;1.00;0.00;;;;;;;;5011903;27;48241;-76
2021/08/06 05:24:02;;;;;;;;;0.00;0.00;;;;;;;;5007840;27;45511;-76
2021/08/06 05:26:27;;;;;;;;;0.00;0.00;;;;;;;;5020333;27;45493;-76
2021/08/06 05:28:52;;;;;;;;;1.00;1.00;;;;;;;;5029485;28;45381;-76
2021/08/06 05:31:19;;;;;;;;;0.00;0.00;;;;;;;;5029624;27;45678;-76
2021/08/06 05:33:44;;;;;;;;;0.25;0.25;;;;;;;;5016386;27;46024;-76
2021/08/06 05:36:09;;;;;;;;;0.00;0.00;;;;;;;;5020770;27;45482;-76
2021/08/06 05:38:35;;;;;;;;;0.67;0.00;;;;;;;;5018726;27;45480;-75
2021/08/06 05:41:02;;;;;;;;;1.00;1.00;;;;;;;;5028614;27;45498;-76
2021/08/06 05:43:27;;;;;;;;;2.00;0.00;;;;;;;;5026032;27;45489;-76
2021/08/06 05:45:52;;;;;;;;;1.00;0.00;;;;;;;;5023629;27;45562;-76
2021/08/06 05:48:18;;;;;;;;;2.00;1.00;;;;;;;;5024709;27;45406;-76
2021/08/06 05:50:43;;;;;;;;;0.00;0.00;;;;;;;;5024089;27;45701;-77
2021/08/06 05:53:09;;;;;;;;;2.50;0.00;;;;;;;;5017977;28;45531;-76
2021/08/06 05:55:34;;;;;;;;;0.00;0.00;;;;;;;;5028091;27;45607;-76
2021/08/06 05:57:59;;;;;;;;;2.50;0.00;;;;;;;;5027604;27;45326;-76
2021/08/06 06:00:24;;;;;;;;;2.00;1.00;;;;;;;;5027426;27;45444;-78
2021/08/06 06:02:49;;;;;;;;;0.00;0.00;;;;;;;;5034267;28;45527;-77
2021/08/06 06:05:15;;;;;;;;;1.33;1.00;;;;;;;;5023345;27;45509;-77
2021/08/06 06:07:47;;;;;;;;;0.33;0.00;;;;;;;;5023105;28;45421;-77
2021/08/06 06:10:13;;;;;;;;;1.25;1.00;;;;;;;;5027453;27;46569;-76
2021/08/06 06:12:41;;;;;;;;;2.25;0.00;;;;;;;;5008948;27;45606;-76
2021/08/06 06:15:07;;;;;;;;;0.00;0.00;;;;;;;;5033356;28;46644;-75
2021/08/06 06:17:32;;;;;;;;;0.75;0.50;;;;;;;;5011814;27;45746;-76
2021/08/06 06:19:57;;;;;;;;;2.00;0.67;;;;;;;;5047617;28;47037;-76
2021/08/06 06:22:22;;;;;;;;;1.67;1.00;;;;;;;;5027458;27;45432;-76
2021/08/06 06:24:47;;;;;;;;;4.00;1.00;;;;;;;;5024250;27;47360;-77
2021/08/06 06:27:13;;;;;;;;;0.33;0.33;;;;;;;;5056318;27;45335;-77
2021/08/06 06:29:38;;;;;;;;;2.00;0.00;;;;;;;;5027997;27;46359;-77
2021/08/06 06:32:03;;;;;;;;;0.00;0.00;;;;;;;;5026691;28;45476;-77
2021/08/06 06:34:29;;;;;;;;;1.00;0.75;;;;;;;;5008532;27;45963;-76
2021/08/06 06:36:54;;;;;;;;;0.00;0.00;;;;;;;;5032691;27;45611;-77
2021/08/06 06:39:19;;;;;;;;;0.00;0.00;;;;;;;;5016022;27;48631;-76
2021/08/06 06:41:45;;;;;;;;;2.75;0.75;;;;;;;;5041554;27;45519;-76
2021/08/06 06:44:10;;;;;;;;;0.00;0.00;;;;;;;;5039270;27;45478;-77
2021/08/06 06:46:35;;;;;;;;;0.33;0.33;;;;;;;;5027519;27;45538;-76
2021/08/06 06:49:00;;;;;;;;;2.00;0.00;;;;;;;;5025686;27;45422;-76
2021/08/06 06:51:25;;;;;;;;;1.00;1.00;;;;;;;;5022160;27;45732;-76
2021/08/06 06:53:51;;;;;;;;;0.00;0.00;;;;;;;;5023043;27;45717;-76
2021/08/06 06:56:16;;;;;;;;;2.00;0.00;;;;;;;;5020914;27;45429;-76
2021/08/06 06:58:41;;;;;;;;;1.33;1.00;;;;;;;;5030359;28;45610;-77
2021/08/06 07:01:06;;;;;;;;;1.00;0.00;;;;;;;;5024654;27;45455;-77
2021/08/06 07:03:32;;;;;;;;;1.75;0.00;;;;;;;;5016052;27;45488;-76
2021/08/06 07:05:57;;;;;;;;;2.00;0.00;;;;;;;;5043875;28;45291;-76
2021/08/06 07:08:23;;;;;;;;;1.50;0.00;;;;;;;;5022227;27;46063;-76
2021/08/06 07:10:48;;;;;;;;;0.00;0.00;;;;;;;;5038209;28;45466;-76
2021/08/06 07:13:13;;;;;;;;;2.00;1.00;;;;;;;;5028149;27;45522;-77
2021/08/06 07:15:39;;;;;;;;;1.33;0.00;;;;;;;;5016778;27;45445;-77
2021/08/06 07:18:04;;;;;;;;;1.00;0.00;;;;;;;;5018026;27;45499;-77
2021/08/06 07:20:29;;;;;;;;;0.00;0.00;;;;;;;;5030937;27;45448;-78
2021/08/06 07:22:57;;;;;;;;;0.00;0.00;;;;;;;;5032109;28;45398;-76
2021/08/06 07:25:22;;;;;;;;;2.00;0.00;;;;;;;;5029966;27;45329;-77
2021/08/06 07:27:47;;;;;;;;;0.00;0.00;;;;;;;;5026852;27;46416;-77
2021/08/06 07:30:14;;;;;;;;;0.00;0.00;;;;;;;;5032663;27;45491;-77
2021/08/06 07:32:39;;;;;;;;;0.00;0.00;;;;;;;;5018018;27;45578;-76
2021/08/06 07:35:05;;;;;;;;;0.00;0.00;;;;;;;;5016758;27;45665;-77
2021/08/06 07:37:30;;;;;;;;;1.00;0.00;;;;;;;;5026183;27;46087;-76
2021/08/06 07:39:55;;;;;;;;;0.00;0.00;;;;;;;;5026808;27;45516;-76
2021/08/06 07:42:21;;;;;;;;;0.00;0.00;;;;;;;;5054877;27;45857;-77
2021/08/06 07:44:46;;;;;;;;;0.00;0.00;;;;;;;;5036727;27;45431;-76
2021/08/06 07:47:11;;;;;;;;;0.00;0.00;;;;;;;;5033762;28;45414;-76
2021/08/06 07:49:37;;;;;;;;;0.00;0.00;;;;;;;;5019804;27;45385;-78
2021/08/06 07:52:02;;;;;;;;;0.00;0.00;;;;;;;;5033743;27;45595;-77
2021/08/06 07:54:27;;;;;;;;;0.75;0.00;;;;;;;;5038913;27;45413;-76
2021/08/06 07:56:52;;;;;;;;;0.00;0.00;;;;;;;;5025244;27;46528;-76
2021/08/06 07:59:19;;;;;;;;;0.00;0.00;;;;;;;;5020772;27;45551;-77
2021/08/06 08:01:45;;;;;;;;;0.50;0.00;;;;;;;;5017983;28;45468;-77
2021/08/06 08:04:10;;;;;;;;;1.75;1.00;;;;;;;;5028915;27;45572;-77
2021/08/06 08:06:35;;;;;;;;;1.00;0.00;;;;;;;;5014104;27;46940;-78
2021/08/06 08:09:01;;;;;;;;;1.33;0.00;;;;;;;;5025813;27;45543;-77
2021/08/06 08:11:26;;;;;;;;;1.00;0.25;;;;;;;;5027261;27;45467;-77
2021/08/06 08:13:51;;;;;;;;;1.00;1.00;;;;;;;;5033401;28;45285;-77
2021/08/06 08:16:16;;;;;;;;;0.67;0.67;;;;;;;;5029016;27;45501;-79
2021/08/06 08:18:42;;;;;;;;;0.33;0.33;;;;;;;;5030890;27;45569;-78
2021/08/06 08:21:07;;;;;;;;;1.33;0.00;;;;;;;;5030119;27;45480;-77
2021/08/06 08:23:32;;;;;;;;;3.00;0.00;;;;;;;;5034404;27;45589;-77
2021/08/06 08:25:58;;;;;;;;;0.67;0.00;;;;;;;;5039000;27;45239;-76
2021/08/06 08:28:24;;;;;;;;;0.50;0.50;;;;;;;;5035826;27;45509;-76
2021/08/06 08:30:49;;;;;;;;;2.25;0.00;;;;;;;;5007146;27;46030;-77
2021/08/06 08:33:16;;;;;;;;;0.50;0.50;;;;;;;;5020735;27;45613;-77
2021/08/06 08:35:42;;;;;;;;;1.00;0.00;;;;;;;;5035774;27;46076;-76
2021/08/06 08:38:07;;;;;;;;;0.00;0.00;;;;;;;;5046055;27;45489;-76
2021/08/06 08:40:32;;;;;;;;;0.00;0.00;;;;;;;;5019158;27;45388;-77
2021/08/06 08:42:58;;;;;;;;;0.50;0.50;;;;;;;;5018942;27;45560;-76
2021/08/06 08:45:23;;;;;;;;;0.00;0.00;;;;;;;;5037556;27;46285;-77
2021/08/06 08:47:48;;;;;;;;;0.50;0.50;;;;;;;;5013928;27;45488;-77
2021/08/06 08:50:15;;;;;;;;;0.00;0.00;;;;;;;;5025440;27;45413;-77
2021/08/06 08:52:40;;;;;;;;;0.00;0.00;;;;;;;;5039077;27;45276;-77
2021/08/06 08:55:05;;;;;;;;;2.00;0.00;;;;;;;;5025398;27;45464;-77
2021/08/06 08:57:31;;;;;;;;;2.00;0.50;;;;;;;;5017460;27;45668;-78
2021/08/06 08:59:56;;;;;;;;;2.00;0.00;;;;;;;;5023057;27;45447;-77
2021/08/06 09:02:24;;;;;;;;;0.00;0.00;;;;;;;;5021472;27;45549;-77
2021/08/06 09:05:05;;;;;;;;;0.50;0.50;;;;;;;;5031721;28;45568;-77
2021/08/06 09:07:31;;;;;;;;;0.00;0.00;;;;;;;;5094880;27;45737;-78
2021/08/06 09:10:07;;;;;;;;;0.00;0.00;;;;;;;;5020440;27;45542;-77
2021/08/06 09:12:46;;;;;;;;;0.00;0.00;;;;;;;;5021098;27;46615;-77
2021/08/06 09:15:11;;;;;;;;;0.00;0.00;;;;;;;;5025286;27;46034;-77
2021/08/06 09:17:39;;;;;;;;;2.00;1.00;;;;;;;;5026149;27;45522;-77
2021/08/06 09:20:08;;;;;;;;;1.00;0.00;;;;;;;;5016942;27;45359;-78
2021/08/06 09:22:33;;;;;;;;;0.00;0.00;;;;;;;;5031606;27;45502;-78
2021/08/06 09:25:03;;;;;;;;;2.00;0.00;;;;;;;;5025183;27;45488;-78
2021/08/06 09:27:31;;;;;;;;;2.00;1.00;;;;;;;;5037689;27;45440;-77
2021/08/06 09:29:57;;;;;;;;;0.75;0.50;;;;;;;;5030232;27;45386;-76
2021/08/06 09:32:24;;;;;;;;;0.25;0.25;;;;;;;;5026717;27;45661;-78
2021/08/06 09:34:49;;;;;;;;;0.00;0.00;;;;;;;;5033230;28;45789;-89
2021/08/06 09:37:18;;;;;;;;;0.00;0.00;;;;;;;;5031729;27;46718;-78
2021/08/06 09:39:45;;;;;;;;;1.25;0.00;;;;;;;;5031923;27;45472;-78
2021/08/06 09:42:23;;;;;;;;;0.50;0.50;;;;;;;;5034987;27;45932;-77
2021/08/06 09:44:57;;;;;;;;;0.00;0.00;;;;;;;;5031665;27;45451;-77
2021/08/06 09:47:23;;;;;;;;;0.00;0.00;;;;;;;;5031377;28;45704;-78
2021/08/06 09:49:52;;;;;;;;;0.75;0.75;;;;;;;;5034891;27;45350;-77
2021/08/06 09:52:25;;;;;;;;;0.00;0.00;;;;;;;;5031921;27;45358;-77
2021/08/06 09:54:51;;;;;;;;;0.00;0.00;;;;;;;;5027271;27;45468;-77
2021/08/06 09:57:16;;;;;;;;;2.50;0.00;;;;;;;;5031399;27;45344;-76
2021/08/06 09:59:42;;;;;;;;;0.00;0.00;;;;;;;;5091076;27;45445;-78
2021/08/06 10:02:11;;;;;;;;;0.25;0.00;;;;;;;;5033511;28;45536;-77
2021/08/06 10:04:37;;;;;;;;;0.50;0.00;;;;;;;;5028145;27;45575;-78
2021/08/06 10:07:02;;;;;;;;;0.00;0.00;;;;;;;;5029254;27;45622;-78
2021/08/06 10:09:27;;;;;;;;;0.75;0.00;;;;;;;;5036049;27;45729;-78
2021/08/06 10:11:53;;;;;;;;;0.00;0.00;;;;;;;;5016893;27;45280;-78
2021/08/06 10:14:18;;;;;;;;;0.00;0.00;;;;;;;;5032387;27;46029;-78
2021/08/06 10:16:44;;;;;;;;;0.00;0.00;;;;;;;;5034718;28;45399;-79
2021/08/06 10:19:10;;;;;;;;;0.00;0.00;;;;;;;;5027375;27;45562;-77
2021/08/06 10:21:35;;;;;;;;;0.00;0.00;;;;;;;;5036074;27;45511;-77
2021/08/06 10:24:01;;;;;;;;;2.00;0.00;;;;;;;;5031659;27;46075;-78
2021/08/06 10:26:26;;;;;;;;;0.00;0.00;;;;;;;;5031887;27;45454;-78
2021/08/06 10:28:51;;;;;;;;;0.00;0.00;;;;;;;;5028014;28;45575;-78
2021/08/06 10:31:21;;;;;;;;;0.75;0.00;;;;;;;;5029402;27;45671;-78
2021/08/06 10:34:15;;;;;;;;;0.00;0.00;;;;;;;;5014854;27;47119;-78
2021/08/06 10:36:42;;;;;;;;;0.00;0.00;;;;;;;;5008652;27;45763;-78
2021/08/06 10:39:27;;;;;;;;;1.00;1.00;;;;;;;;5016197;27;45556;-78
2021/08/06 10:41:52;;;;;;;;;1.00;0.00;;;;;;;;5030825;27;45369;-78
2021/08/06 10:44:18;;;;;;;;;1.75;1.00;;;;;;;;5007458;27;48113;-77
2021/08/06 10:46:49;;;;;;;;;0.25;0.25;;;;;;;;5029517;28;48425;-78
2021/08/06 10:49:16;;;;;;;;;0.00;0.00;;;;;;;;5027746;27;45445;-78
2021/08/06 10:51:41;;;;;;;;;0.00;0.00;;;;;;;;5029295;27;45390;-79
2021/08/06 10:54:06;;;;;;;;;0.00;0.00;;;;;;;;5016784;27;47388;-80
2021/08/06 10:56:33;;;;;;;;;0.00;0.00;;;;;;;;5020563;27;45898;-78
2021/08/06 10:58:59;;;;;;;;;1.00;1.00;;;;;;;;5047172;27;45629;-78
2021/08/06 11:01:24;;;;;;;;;1.00;0.00;;;;;;;;5033221;27;45835;-78
2021/08/06 11:03:53;;;;;;;;;1.00;0.67;;;;;;;;5041470;28;46083;-78
2021/08/06 11:06:38;;;;;;;;;0.50;0.25;;;;;;;;5022042;27;45523;-79
2021/08/06 11:09:04;;;;;;;;;1.00;1.00;;;;;;;;5017158;27;45886;-79
2021/08/06 11:11:42;;;;;;;;;1.00;0.00;;;;;;;;5017776;27;45439;-79
2021/08/06 11:14:07;;;;;;;;;1.00;1.00;;;;;;;;5036760;27;46319;-77
2021/08/06 11:16:33;;;;;;;;;0.25;0.25;;;;;;;;5028805;27;45727;-78
2021/08/06 11:18:59;;;;;;;;;0.25;0.25;;;;;;;;5026256;27;45403;-78
2021/08/06 11:21:24;;;;;;;;;0.00;0.00;;;;;;;;5019204;27;45722;-80
2021/08/06 11:23:57;;;;;;;;;0.00;0.00;;;;;;;;5022826;27;45712;-78
2021/08/06 11:26:23;;;;;;;;;0.25;0.00;;;;;;;;5013012;27;45674;-78
2021/08/06 11:28:48;;;;;;;;;1.75;1.00;;;;;;;;5020864;27;45428;-77
2021/08/06 11:31:17;;;;;;;;;1.50;0.00;;;;;;;;5016748;27;45630;-79
2021/08/06 11:33:43;;;;;;;;;2.00;0.00;;;;;;;;5007581;27;46484;-77
2021/08/06 11:36:17;;;;;;;;;0.00;0.00;;;;;;;;5024645;27;45450;-76
2021/08/06 11:38:43;;;;;;;;;4.00;1.00;;;;;;;;5017301;28;45479;-76
2021/08/06 11:41:08;;;;;;;;;2.00;0.00;;;;;;;;5012509;27;45319;-79
2021/08/06 11:43:35;;;;;;;;;1.75;1.00;;;;;;;;5020465;27;47719;-76
2021/08/06 11:46:06;;;;;;;;;0.00;0.00;;;;;;;;5022545;27;45825;-76
2021/08/06 11:48:44;;;;;;;;;0.75;0.75;;;;;;;;5029773;27;45301;-80
2021/08/06 11:51:09;;;;;;;;;0.25;0.25;;;;;;;;5067692;27;45697;-80
2021/08/06 11:53:34;;;;;;;;;0.00;0.00;;;;;;;;5028648;27;46124;-77
2021/08/06 11:55:59;;;;;;;;;0.00;0.00;;;;;;;;5066106;27;45573;-77
2021/08/06 11:58:32;;;;;;;;;0.00;0.00;;;;;;;;5048652;27;45654;-77
2021/08/06 12:00:57;;;;;;;;;2.00;1.00;;;;;;;;5021306;27;45453;-76
2021/08/06 12:03:22;;;;;;;;;1.67;0.00;;;;;;;;5027974;27;46192;-77
2021/08/06 12:05:51;;;;;;;;;2.00;0.00;;;;;;;;5015349;27;45673;-76
2021/08/06 12:08:24;;;;;;;;;1.00;0.00;;;;;;;;5011068;27;45414;-77
2021/08/06 12:10:52;;;;;;;;;1.50;0.25;;;;;;;;5037536;27;45543;-77
2021/08/06 12:13:23;;;;;;;;;0.00;0.00;;;;;;;;5023323;27;46314;-77
2021/08/06 12:15:58;;;;;;;;;0.00;0.00;;;;;;;;5015285;27;45432;-79
2021/08/06 12:18:23;;;;;;;;;0.00;0.00;;;;;;;;5029200;27;45558;-79
2021/08/06 12:20:51;;;;;;;;;2.00;1.00;;;;;;;;5017886;27;45583;-77
2021/08/06 12:23:18;;;;;;;;;1.00;0.00;;;;;;;;5021740;27;45614;-78
2021/08/06 12:26:02;;;;;;;;;0.50;0.50;;;;;;;;5011591;27;46027;-78
2021/08/06 12:28:27;;;;;;;;;2.00;1.00;;;;;;;;5028658;27;45561;-77
2021/08/06 12:31:05;;;;;;;;;1.00;0.00;;;;;;;;5041719;27;46456;-77
2021/08/06 12:33:30;;;;;;;;;0.75;0.00;;;;;;;;5025473;27;46920;-79
2021/08/06 12:36:07;;;;;;;;;0.00;0.00;;;;;;;;5017847;27;45560;-78
2021/08/06 12:38:32;;;;;;;;;1.00;0.25;;;;;;;;5020967;27;45531;-77
2021/08/06 12:41:00;;;;;;;;;0.00;0.00;;;;;;;;5021638;28;45638;-77
2021/08/06 12:43:25;;;;;;;;;0.00;0.00;;;;;;;;5028050;27;46195;-77
2021/08/06 12:46:10;;;;;;;;;0.00;0.00;;;;;;;;5030608;27;45341;-77
2021/08/06 12:48:35;;;;;;;;;0.00;0.00;;;;;;;;4998479;27;45498;-77
2021/08/06 12:51:16;;;;;;;;;0.50;0.00;;;;;;;;5022218;27;45449;-76
2021/08/06 12:53:42;;;;;;;;;0.00;0.00;;;;;;;;5021557;27;48037;-77
2021/08/06 12:56:07;;;;;;;;;0.00;0.00;;;;;;;;5018005;28;46011;-78
2021/08/06 12:58:32;;;;;;;;;0.00;0.00;;;;;;;;5024573;27;45450;-77
2021/08/06 13:01:00;;;;;;;;;0.00;0.00;;;;;;;;5026515;27;45533;-78
2021/08/06 13:03:29;;;;;;;;;0.00;0.00;;;;;;;;5020890;27;46332;-78
2021/08/06 13:05:59;;;;;;;;;0.00;0.00;;;;;;;;5018902;27;45760;-78
2021/08/06 13:08:27;;;;;;;;;0.75;0.00;;;;;;;;5016415;27;45377;-78
2021/08/06 13:11:02;;;;;;;;;0.25;0.25;;;;;;;;5011250;28;45362;-78
2021/08/06 13:13:30;;;;;;;;;0.00;0.00;;;;;;;;5026744;27;46180;-79
2021/08/06 13:15:55;;;;;;;;;0.00;0.00;;;;;;;;5024986;27;45428;-79
2021/08/06 13:18:20;;;;;;;;;0.00;0.00;;;;;;;;5013834;27;45333;-79
2021/08/06 13:20:46;;;;;;;;;0.00;0.00;;;;;;;;5017150;27;45505;-80
2021/08/06 13:23:11;;;;;;;;;0.00;0.00;;;;;;;;5017130;28;46316;-79
2021/08/06 13:25:38;;;;;;;;;2.00;0.00;;;;;;;;5026615;27;45503;-79
2021/08/06 13:28:04;;;;;;;;;0.00;0.00;;;;;;;;5010732;27;45542;-78
2021/08/06 13:30:30;;;;;;;;;0.50;0.00;;;;;;;;5015764;27;45718;-86
2021/08/06 13:32:56;;;;;;;;;0.50;0.00;;;;;;;;5012318;27;46537;-78
2021/08/06 13:35:21;;;;;;;;;0.00;0.00;;;;;;;;5013801;27;45779;-81
2021/08/06 13:37:46;;;;;;;;;0.00;0.00;;;;;;;;5020505;28;45547;-79
2021/08/06 13:40:12;;;;;;;;;0.25;0.00;;;;;;;;5025609;27;46099;-78
2021/08/06 13:42:37;;;;;;;;;0.00;0.00;;;;;;;;5027675;27;52843;-78
2021/08/06 13:45:03;;;;;;;;;0.00;0.00;;;;;;;;5022110;27;45330;-80
2021/08/06 13:47:28;;;;;;;;;0.00;0.00;;;;;;;;5014641;28;49899;-78
2021/08/06 13:49:53;;;;;;;;;0.00;0.00;;;;;;;;5035837;27;45649;-77
2021/08/06 13:52:19;;;;;;;;;0.00;0.00;;;;;;;;5039923;28;47721;-77
2021/08/06 13:54:45;;;;;;;;;2.00;0.00;;;;;;;;5030042;28;45526;-82
2021/08/06 13:57:10;;;;;;;;;0.00;0.00;;;;;;;;5017638;27;45649;-80
2021/08/06 13:59:36;;;;;;;;;1.00;0.00;;;;;;;;5020403;27;45568;-78
2021/08/06 14:02:01;;;;;;;;;0.00;0.00;;;;;;;;5011239;27;46768;-78
2021/08/06 14:04:26;;;;;;;;;0.00;0.00;;;;;;;;5018066;27;46049;-79
2021/08/06 14:06:53;;;;;;;;;0.00;0.00;;;;;;;;5021039;27;45930;-78
2021/08/06 14:09:18;;;;;;;;;0.00;0.00;;;;;;;;5018935;27;46916;-77
2021/08/06 14:11:44;;;;;;;;;0.00;0.00;;;;;;;;5010903;27;45437;-78
2021/08/06 14:14:09;;;;;;;;;0.00;0.00;;;;;;;;5020671;27;46462;-79
2021/08/06 14:16:34;;;;;;;;;0.00;0.00;;;;;;;;5015225;27;45407;-78
2021/08/06 14:18:59;;;;;;;;;0.00;0.00;;;;;;;;5027635;27;45691;-78
2021/08/06 14:21:25;;;;;;;;;0.25;0.25;;;;;;;;5028312;27;45415;-78
2021/08/06 14:23:50;;;;;;;;;0.00;0.00;;;;;;;;5039735;27;45364;-78
2021/08/06 14:26:15;;;;;;;;;0.00;0.00;;;;;;;;5023098;27;46112;-78
2021/08/06 14:28:42;;;;;;;;;0.00;0.00;;;;;;;;5025740;27;45460;-78
2021/08/06 14:31:10;;;;;;;;;0.00;0.00;;;;;;;;5026650;27;45466;-78
2021/08/06 14:33:39;;;;;;;;;2.00;0.00;;;;;;;;5027259;27;45357;-78
2021/08/06 14:36:05;;;;;;;;;0.00;0.00;;;;;;;;5026863;27;45386;-77
2021/08/06 14:38:30;;;;;;;;;0.00;0.00;;;;;;;;5036344;27;45506;-78
2021/08/06 14:40:55;;;;;;;;;0.00;0.00;;;;;;;;5017614;28;45324;-77